Hauptseite
METAR-TAF:

METAR-TAF

Flughäfen :

Fliegerhorst Schleswig

Schleswig-Jagel, Deutschland

Breite: 54-28N, Länge: 009-31E, Höhe: 22 m

Beobachtung

Neuester Wetterbericht von vor 1 Stunde und 2 Minuten, um 11:20 UTC
Wind 9 kt aus Südost
Temperatur 8°C
Luftfeuchtigkeit 76%
Luftdruck 1032 hPa
Sichtweite 10 km oder mehr

METAR: ETNS 161120Z AUTO 14009KT 9999 // ////// 08/04 Q1032 ///

Zeit: 13:22 (12:22 UTC)

Prognose

Neuester Wetterbericht von vor 1 Stunde und 2 Minuten, um 11:20 UTC
Gültige Prognose vom 16 um 11 UTC bis 16 um 18 UTC
Wind 8 kt aus Südost
Sichtweite 10 km oder mehr
Himmel klar

TAF: ETNS 161120Z 1611/1618 13008KT 9999 NSW SKC CANCEL 1120Z BY ETGL

Wetterbeobachtungen und Prognosen von mehr als 4000 Flughäfen (METAR und TAF Bericht).

Die verfügbaren Stationen werden durch gelbe und rote Markierungen auf der Karte dargestellt.

Führen Sie die Maus auf sie, um den Namen der Station zu sehen.

Darauf klicken, um die Beobachtung von Wetterbeobachtungen und Prognosen zu sehen.

Um die Karte zu ändern : klicken Sie auf den grünen Tasten mit einem schwarzen Kreuz Zum Vergrößern, auf den grünen Button mit einem Gedankenstrich zu verkleinern, oder auf die grünen Pfeile für benachbarte Karten.


METAR-TAF: